メインページ
METAR-TAF:

METAR-TAF

空港 :

ウランバートル, モンゴル国

チンギスハーン国際空港

緯度: 47-55N, 経度: 106-52E, 海抜: 1306m

現時点の気象観測

当レポートは7分前の13:00(UTC)に作成
変向風 2kt
気温 -20°C
湿度 84%
気圧 1013 hPa
視程10km以上
高度10000ftの雲は散在している

METAR: ZMUB 241300Z VRB01MPS 9999 SCT100 M20/M22 Q1013 R14440095 NOSIG RMK QFE652.8 83 NT

時間: 21:07 (13:07 UTC)

予報

当レポートは2時間27分前の10:40(UTC)に作成
予報は24日の 12時(UTC)から 25日の 18時(UTC)まで有効
変向風 4kt
視程10km以上
高度10000ftの千切れ雲あり
24日の 16時(UTC)から 24日の 18時(UTC)まで徐々に
視程: 6000m
高度8000ftの千切れ雲あり
小雪
25日の 02時(UTC)から 25日の 04時(UTC)まで徐々に
北西の風 12kt
視程10km以上
25日の 09時(UTC)から 25日の 11時(UTC)まで徐々に
変向風 4kt
高度10000ftの雲は散在している

TAF: ZMUB 241040Z 2412/2518 VRB02MPS 9999 BKN100 TNM25/2422Z TXM13/2507Z BECMG 2416/2418 6000 -SN BKN080 BECMG 2502/2504 31006MPS 9999 NSW BECMG 2509/2511 VRB02MPS SCT100

4,000以上の空港の気象観測と天気予報(METAR報とTAF報)

利用可能な観測所は地図上に黄色い丸と赤い丸で示す。

丸の上にカーソルを重ねると観測所名を参照できる。

次にクリックすると気象観測と天気予報を参照できる。

マップの切り替え:黒色「×」印の緑ボタンをクリックして拡大、「-」印の緑ボタンをクリックして縮小、緑色の三角印をクリックして隣りの地図に切り替え


METAR-TAF: